Roscoe, South Dakota
Current Conditions -  °F | °C
As of 7:53 PM on Thursday 20 Nov 2014 (Local Time) from KABR Reporting Station
Clear Clear  
Wind Chill: -11°   Ceiling: Unl
Heat Index:   Visibility: 10mi
Dew Point:   Wind: 12mph
Humidity: 84%   Direction: 170°S
Pressure: 30.11"   Gusts: NA
Location:  45.45°N, 99.34°W
Report Text: KABR 210153Z AUTO 17010KT 10SM CLR M15/M17 A3011 RMK AO2 SLP229 T11501172
Loading
Personal Weather Stations






























Interactive Weather Map New forecast layout! Learn more

10-Day Weather Forecast

Advertisements
Track Severe Weather on mobile